Time;durP1;ratioP1;P1;durP2;ratioP2;P2;SDS_P1;SDS_P2;PMS_P1;PMS_P2;Temp;Humidity;BMP_temperature;BMP_pressure;BME280_temperature;BME280_humidity;BME280_pressure;Samples;Min_cycle;Max_cycle;Signal;HPM_P1;HPM_P2
2024/01/11 00:01:58;;;;;;;22.15;12.32;;;;;;;29.44;65.50;101070.13;5074209;28;70347;-37
2024/01/11 00:04:28;;;;;;;28.80;14.07;;;;;;;29.47;65.61;101080.53;5045438;28;66504;-36
2024/01/11 00:06:59;;;;;;;31.77;14.93;;;;;;;29.56;65.84;101082.00;5054256;28;69497;-36
2024/01/11 00:09:29;;;;;;;23.27;13.00;;;;;;;29.60;66.59;101080.56;5034839;28;65513;-39
2024/01/11 00:12:00;;;;;;;27.23;13.98;;;;;;;29.62;67.34;101090.13;5058197;28;71297;-40
2024/01/11 00:14:31;;;;;;;25.75;13.82;;;;;;;29.64;68.48;101089.94;5041114;28;65784;-38
2024/01/11 00:17:02;;;;;;;28.23;14.68;;;;;;;29.52;68.86;101067.25;5036762;28;70854;-38
2024/01/11 00:19:33;;;;;;;35.53;15.43;;;;;;;29.71;68.30;101096.19;5054889;28;65733;-38
2024/01/11 00:22:03;;;;;;;32.63;16.27;;;;;;;29.74;69.22;101103.06;5041667;28;70609;-38
2024/01/11 00:24:34;;;;;;;31.80;16.00;;;;;;;29.77;68.60;101108.03;5038690;28;66632;-38
2024/01/11 00:27:08;;;;;;;26.33;15.80;;;;;;;29.74;68.44;101103.88;5038872;28;70480;-36
2024/01/11 00:29:38;;;;;;;33.33;15.98;;;;;;;29.82;68.32;101119.91;5035329;28;65996;-37
2024/01/11 00:32:10;;;;;;;24.02;15.32;;;;;;;29.78;68.78;101115.09;5028808;28;69750;-37
2024/01/11 00:34:41;;;;;;;25.33;14.85;;;;;;;29.70;68.75;101108.06;5037315;28;66258;-37
2024/01/11 00:37:11;;;;;;;26.08;15.20;;;;;;;29.68;69.19;101102.00;5039876;28;70512;-38
2024/01/11 00:39:42;;;;;;;24.58;14.88;;;;;;;29.87;68.62;101134.69;5044878;28;66740;-37
2024/01/11 00:42:12;;;;;;;29.63;16.63;;;;;;;29.91;68.94;101141.34;5049044;28;69559;-38
2024/01/11 00:44:44;;;;;;;27.55;16.38;;;;;;;29.81;68.66;101137.19;5037420;28;66600;-37
2024/01/11 00:47:15;;;;;;;20.23;14.38;;;;;;;29.91;68.91;101141.34;5028320;28;70526;-39
2024/01/11 00:49:46;;;;;;;27.65;14.75;;;;;;;29.92;69.35;101146.56;5044738;28;65863;-37
2024/01/11 00:52:16;;;;;;;29.52;15.70;;;;;;;29.92;69.55;101145.69;5059082;28;70279;-38
2024/01/11 00:54:47;;;;;;;24.25;15.70;;;;;;;29.85;68.97;101129.47;5056084;28;65579;-38
2024/01/11 00:57:17;;;;;;;25.20;15.80;;;;;;;29.94;69.49;101143.63;5078788;28;70515;-38
2024/01/11 00:59:50;;;;;;;28.25;14.85;;;;;;;29.96;69.79;101149.66;5063043;28;65782;-38
2024/01/11 01:02:21;;;;;;;25.10;15.73;;;;;;;29.96;69.04;101150.50;5037592;28;70990;-36
2024/01/11 01:04:52;;;;;;;32.50;15.48;;;;;;;30.03;69.68;101153.19;5032505;28;67193;-38
2024/01/11 01:07:23;;;;;;;36.22;16.90;;;;;;;30.00;70.42;101151.72;5032583;28;70322;-38
2024/01/11 01:09:53;;;;;;;37.45;15.90;;;;;;;30.04;69.42;101154.88;5037903;28;66615;-37
2024/01/11 01:12:25;;;;;;;29.90;16.02;;;;;;;30.00;70.23;101153.59;5042440;28;70660;-38
2024/01/11 01:14:58;;;;;;;20.05;14.73;;;;;;;30.11;69.12;101157.56;5044801;28;65650;-38
2024/01/11 01:17:30;;;;;;;23.52;14.57;;;;;;;30.09;68.26;101149.66;5040309;28;69502;-38
2024/01/11 01:20:01;;;;;;;18.75;13.15;;;;;;;30.22;68.04;101168.63;5049999;28;66306;-38
2024/01/11 01:22:31;;;;;;;25.35;14.73;;;;;;;30.25;67.52;101170.06;5053454;28;70017;-41
2024/01/11 01:25:02;;;;;;;21.00;14.00;;;;;;;30.31;67.78;101168.41;5057502;28;66840;-39
2024/01/11 01:27:33;;;;;;;24.17;14.03;;;;;;;30.31;67.76;101166.53;5029613;28;70247;-39
2024/01/11 01:30:05;;;;;;;22.92;13.85;;;;;;;30.32;67.32;101170.09;5055192;28;66616;-39
2024/01/11 01:32:35;;;;;;;29.67;15.52;;;;;;;30.35;67.43;101169.66;5054339;28;69086;-38
2024/01/11 01:35:07;;;;;;;19.92;13.95;;;;;;;30.41;67.07;101174.22;5050164;28;66017;-39
2024/01/11 01:37:38;;;;;;;17.13;13.25;;;;;;;30.43;67.35;101177.56;5019793;28;69942;-37
2024/01/11 01:40:09;;;;;;;15.90;12.80;;;;;;;30.46;67.05;101171.72;5039987;28;65111;-39
2024/01/11 01:42:46;;;;;;;14.50;12.83;;;;;;;30.37;67.17;101162.13;5058387;28;70044;-39
2024/01/11 01:45:17;;;;;;;18.25;13.77;;;;;;;30.46;67.45;101171.72;5041317;28;66519;-39
2024/01/11 01:47:47;;;;;;;23.73;14.55;;;;;;;30.49;66.83;101176.72;5052001;28;70607;-39
2024/01/11 01:50:20;;;;;;;20.80;14.43;;;;;;;30.47;67.19;101178.78;5047074;28;67019;-38
2024/01/11 01:52:51;;;;;;;20.42;14.15;;;;;;;30.44;67.40;101165.69;5048693;28;70774;-39
2024/01/11 01:55:23;;;;;;;17.05;13.15;;;;;;;30.37;67.20;101154.03;5056169;28;65831;-38
2024/01/11 01:57:54;;;;;;;21.67;13.43;;;;;;;30.53;67.27;101183.38;5052744;28;70608;-40
2024/01/11 02:00:26;;;;;;;19.48;14.20;;;;;;;30.56;66.79;101188.34;5053698;28;65398;-41
2024/01/11 02:02:58;;;;;;;18.15;13.40;;;;;;;30.57;67.38;101186.50;5035987;28;70286;-40
2024/01/11 02:05:29;;;;;;;15.88;14.18;;;;;;;30.61;67.03;101191.25;5053542;28;66895;-38
2024/01/11 02:08:03;;;;;;;22.20;14.10;;;;;;;30.55;66.96;101188.59;5041325;28;70028;-38
2024/01/11 02:10:38;;;;;;;19.25;14.23;;;;;;;30.63;67.19;101194.59;5037751;28;66141;-38
2024/01/11 02:13:08;;;;;;;19.15;13.68;;;;;;;30.66;66.87;101193.34;5020263;28;69688;-39
2024/01/11 02:15:40;;;;;;;16.23;13.15;;;;;;;30.65;66.83;101192.53;5039309;28;65744;-38
2024/01/11 02:18:11;;;;;;;19.98;13.90;;;;;;;30.63;67.02;101188.34;5037320;28;70265;-40
2024/01/11 02:20:42;;;;;;;18.90;13.15;;;;;;;30.67;67.18;101187.72;5057231;28;66546;-39
2024/01/11 02:23:17;;;;;;;16.83;13.00;;;;;;;30.68;66.98;101181.25;5046901;28;70164;-41
2024/01/11 02:25:48;;;;;;;14.60;12.90;;;;;;;30.72;66.96;101193.31;5052385;28;66529;-39
2024/01/11 02:28:19;;;;;;;21.40;13.80;;;;;;;30.74;66.89;101179.59;5056929;28;70725;-38
2024/01/11 02:30:50;;;;;;;16.00;14.20;;;;;;;30.75;66.74;101180.41;5054246;28;66700;-38
2024/01/11 02:33:21;;;;;;;16.35;13.30;;;;;;;30.77;66.92;101183.75;5058927;28;70792;-38
2024/01/11 02:35:52;;;;;;;17.63;14.18;;;;;;;30.80;66.61;101183.34;5051398;28;66611;-39
2024/01/11 02:38:23;;;;;;;18.13;13.95;;;;;;;30.70;66.91;101168.34;5056800;28;69126;-39
2024/01/11 02:40:54;;;;;;;19.38;14.25;;;;;;;30.82;66.92;101176.69;5056312;28;66021;-39
2024/01/11 02:43:25;;;;;;;;;;;;;;;30.45;68.21;101186.28;5052680;28;70532;-38
2024/01/11 02:45:56;;;;;;;18.23;13.30;;;;;;;30.79;67.13;101176.25;5056466;28;66091;-40
2024/01/11 02:48:29;;;;;;;;;;;;;;;30.45;68.42;101175.47;5047369;28;70189;-37
2024/01/11 02:51:00;;;;;;;16.92;13.65;;;;;;;30.76;67.13;101187.47;5046584;28;65249;-45
2024/01/11 02:53:34;;;;;;;22.67;15.02;;;;;;;30.80;66.88;101175.22;5040478;28;70340;-40
2024/01/11 02:56:05;;;;;;;16.38;13.70;;;;;;;30.82;67.27;101181.25;5044111;28;66537;-38
2024/01/11 02:58:35;;;;;;;21.13;13.88;;;;;;;30.81;67.21;101175.00;5038777;28;69885;-40
2024/01/11 03:01:06;;;;;;;19.95;13.63;;;;;;;30.82;66.92;101170.44;5044155;28;65612;-39
2024/01/11 03:03:36;;;;;;;18.35;13.93;;;;;;;30.77;67.42;101152.06;5057577;28;69774;-38
2024/01/11 03:06:07;;;;;;;15.50;13.88;;;;;;;30.93;66.90;101170.59;5044130;28;66680;-39
2024/01/11 03:08:38;;;;;;;20.30;14.15;;;;;;;30.95;66.83;101175.78;5059017;28;70772;-39
2024/01/11 03:11:08;;;;;;;16.75;14.10;;;;;;;30.97;66.88;101168.28;5051034;28;66040;-39
2024/01/11 03:13:39;;;;;;;15.70;14.02;;;;;;;30.94;66.83;101155.16;5038685;28;69666;-39
2024/01/11 03:16:10;;;;;;;15.20;13.40;;;;;;;30.99;66.71;101165.38;5055644;28;65643;-39
2024/01/11 03:18:41;;;;;;;15.27;13.77;;;;;;;30.95;66.83;101148.69;5037742;28;69892;-39
2024/01/11 03:21:12;;;;;;;22.60;14.55;;;;;;;31.04;66.79;101152.84;5040436;28;66197;-39
2024/01/11 03:23:42;;;;;;;16.80;13.68;;;;;;;31.05;66.91;101151.78;5054292;28;69856;-39
2024/01/11 03:26:14;;;;;;;18.95;14.05;;;;;;;30.71;66.73;101086.06;5037090;28;66074;-39
2024/01/11 03:28:45;;;;;;;18.65;14.45;;;;;;;31.10;66.78;101145.72;5036843;28;69933;-38
2024/01/11 03:31:15;;;;;;;15.25;13.65;;;;;;;31.09;66.58;101142.19;5043061;28;66221;-39
2024/01/11 03:33:46;;;;;;;15.18;13.63;;;;;;;31.12;66.53;101139.06;5044445;28;70521;-39
2024/01/11 03:36:17;;;;;;;15.57;13.52;;;;;;;31.13;66.63;101140.72;5042728;28;66973;-39
2024/01/11 03:38:47;;;;;;;17.20;14.23;;;;;;;31.14;67.02;101136.94;5042471;28;70128;-38
2024/01/11 03:41:20;;;;;;;16.75;13.63;;;;;;;31.16;66.66;101142.97;5042422;28;66597;-39
2024/01/11 03:43:51;;;;;;;16.73;13.25;;;;;;;31.21;66.83;101146.94;5048390;28;70356;-39
2024/01/11 03:46:21;;;;;;;14.07;12.98;;;;;;;31.22;66.79;101143.16;5040865;28;66324;-39
2024/01/11 03:48:52;;;;;;;15.02;13.60;;;;;;;31.20;66.48;101140.66;5037874;28;70669;-38
2024/01/11 03:51:23;;;;;;;16.07;14.17;;;;;;;31.24;66.87;101146.50;5055616;28;66430;-38
2024/01/11 03:53:54;;;;;;;17.42;14.27;;;;;;;31.26;66.72;101142.53;5058363;28;70968;-40
2024/01/11 03:56:24;;;;;;;17.40;13.45;;;;;;;31.29;66.94;101143.97;5044050;28;66790;-38
2024/01/11 03:58:55;;;;;;;15.55;13.95;;;;;;;31.29;66.47;101133.97;5057769;28;69721;-39
2024/01/11 04:01:26;;;;;;;15.35;13.15;;;;;;;31.23;66.50;101128.56;5058731;28;67618;-38
2024/01/11 04:03:57;;;;;;;15.40;13.80;;;;;;;31.34;66.79;101133.28;5069463;28;71121;-39
2024/01/11 04:06:29;;;;;;;16.30;14.60;;;;;;;31.36;66.62;101128.53;5040763;28;67074;-39
2024/01/11 04:08:59;;;;;;;15.80;14.18;;;;;;;31.33;66.48;101118.09;5053672;28;70781;-39
2024/01/11 04:11:30;;;;;;;16.00;13.60;;;;;;;31.40;66.36;101124.34;5046429;28;65639;-38
2024/01/11 04:14:01;;;;;;;17.10;14.07;;;;;;;31.42;66.56;101115.97;5059161;28;69984;-38
2024/01/11 04:16:31;;;;;;;23.48;15.25;;;;;;;31.44;66.55;101101.16;5029507;28;66779;-39
2024/01/11 04:19:03;;;;;;;17.40;14.65;;;;;;;31.37;66.53;101093.06;5032525;28;70852;-38
2024/01/11 04:21:34;;;;;;;;;;;;;;;31.13;67.55;101102.78;5060340;28;66127;-39
2024/01/11 04:24:05;;;;;;;15.00;13.50;;;;;;;31.42;66.58;101095.13;5058899;28;70492;-40
2024/01/11 04:26:35;;;;;;;;;;;;;;;31.16;67.59;101102.34;5049234;28;67366;-39
2024/01/11 04:29:06;;;;;;;18.45;13.88;;;;;;;31.39;66.45;101079.28;5039711;28;70842;-40
2024/01/11 04:31:37;;;;;;;15.70;14.15;;;;;;;31.51;66.49;101087.53;5028078;28;66526;-39
2024/01/11 04:34:07;;;;;;;15.32;14.00;;;;;;;31.57;66.73;101086.69;5031979;28;69813;-38
2024/01/11 04:36:39;;;;;;;17.25;14.88;;;;;;;31.57;66.24;101079.38;5034698;28;66014;-39
2024/01/11 04:39:11;;;;;;;21.08;14.90;;;;;;;31.60;66.25;101069.97;5050093;28;70269;-40
2024/01/11 04:41:42;;;;;;;16.98;15.10;;;;;;;31.63;66.72;101074.13;5027669;28;66183;-40
2024/01/11 04:44:12;;;;;;;16.75;14.48;;;;;;;31.64;66.21;101065.75;5041037;28;70107;-39
2024/01/11 04:46:44;;;;;;;16.25;14.32;;;;;;;31.67;66.13;101061.78;5051415;28;65774;-39
2024/01/11 04:49:15;;;;;;;15.57;14.05;;;;;;;31.69;66.28;101060.50;5039840;28;69598;-39
2024/01/11 04:51:45;;;;;;;18.45;14.63;;;;;;;31.72;66.34;101061.94;5039885;28;66533;-39
2024/01/11 04:54:16;;;;;;;16.80;15.15;;;;;;;31.76;65.84;101057.72;5037982;28;69869;-39
2024/01/11 04:56:46;;;;;;;17.23;15.45;;;;;;;31.68;66.23;101036.31;5039750;28;66036;-39
2024/01/11 04:59:17;;;;;;;16.90;15.30;;;;;;;31.80;65.97;101048.09;5038441;28;69902;-39
2024/01/11 05:01:48;;;;;;;17.95;15.38;;;;;;;31.80;66.05;101037.25;5046425;28;65719;-40
2024/01/11 05:04:18;;;;;;;18.08;16.08;;;;;;;31.84;66.10;101041.16;5057925;28;70268;-39
2024/01/11 05:06:49;;;;;;;17.90;16.00;;;;;;;31.75;66.25;101018.91;5046748;28;65040;-39
2024/01/11 05:09:19;;;;;;;20.98;18.88;;;;;;;31.86;66.16;101030.94;5028940;28;69461;-39
2024/01/11 05:11:50;;;;;;;23.25;19.17;;;;;;;31.82;66.15;101013.47;5029944;28;65642;-40
2024/01/11 05:14:21;;;;;;;23.63;19.77;;;;;;;31.85;65.98;101006.75;5027767;28;68999;-39
2024/01/11 05:16:51;;;;;;;27.85;20.33;;;;;;;31.89;66.15;101013.38;5047197;28;66232;-39
2024/01/11 05:19:22;;;;;;;24.07;21.37;;;;;;;31.90;65.91;101006.88;5031620;28;70399;-39
2024/01/11 05:21:53;;;;;;;24.58;21.95;;;;;;;31.94;66.00;101000.00;5033174;28;66144;-39
2024/01/11 05:24:24;;;;;;;29.08;21.55;;;;;;;31.67;66.06;100940.56;5035028;28;70676;-40
2024/01/11 05:26:54;;;;;;;25.30;21.42;;;;;;;31.97;65.84;100992.25;5036354;28;66840;-39
2024/01/11 05:29:25;;;;;;;26.15;20.42;;;;;;;31.99;65.77;100990.13;5042495;28;70311;-39
2024/01/11 05:31:56;;;;;;;28.88;21.35;;;;;;;31.90;66.07;100956.19;5041223;28;68132;-40
2024/01/11 05:34:26;;;;;;;25.40;21.90;;;;;;;32.01;65.56;100974.47;5045120;28;69519;-40
2024/01/11 05:36:57;;;;;;;24.38;21.48;;;;;;;31.88;65.84;100942.03;5043647;28;66359;-38
2024/01/11 05:39:29;;;;;;;;;;;;;;;31.76;66.91;100970.94;5052773;28;69866;-40
2024/01/11 05:41:59;;;;;;;24.77;21.52;;;;;;;31.97;65.82;100951.53;5050232;28;66456;-39
2024/01/11 05:44:30;;;;;;;26.75;23.88;;;;;;;31.99;65.69;100938.59;5068042;28;69893;-40
2024/01/11 05:47:00;;;;;;;30.15;24.30;;;;;;;32.11;65.81;100954.09;5062834;28;67019;-39
2024/01/11 05:49:31;;;;;;;28.48;25.55;;;;;;;32.12;65.80;100950.31;5028264;28;70000;-40
2024/01/11 05:52:02;;;;;;;28.98;25.85;;;;;;;32.13;65.68;100952.00;5040860;28;66372;-39
2024/01/11 05:54:33;;;;;;;29.43;26.37;;;;;;;32.13;65.76;100943.84;5040814;28;70350;-38
2024/01/11 05:57:03;;;;;;;33.20;27.58;;;;;;;32.16;65.69;100933.38;5052798;28;66226;-39
2024/01/11 05:59:34;;;;;;;30.33;26.90;;;;;;;32.14;65.74;100918.38;5042055;28;70782;-40
2024/01/11 06:02:05;;;;;;;30.67;27.40;;;;;;;32.19;65.70;100926.66;5040925;28;66306;-40
2024/01/11 06:04:35;;;;;;;38.17;33.78;;;;;;;32.14;65.60;100912.94;5042752;28;70090;-40
2024/01/11 06:07:06;;;;;;;35.97;32.17;;;;;;;32.22;65.77;100915.34;5039463;28;65762;-38
2024/01/11 06:09:36;;;;;;;37.53;33.47;;;;;;;32.25;65.56;100914.88;5042439;28;69895;-40
2024/01/11 06:12:07;;;;;;;40.80;35.30;;;;;;;32.26;65.60;100900.25;5043635;28;66690;-39
2024/01/11 06:14:38;;;;;;;39.20;34.80;;;;;;;32.17;65.46;100877.19;5031969;28;70221;-38
2024/01/11 06:17:10;;;;;;;42.58;37.97;;;;;;;32.30;65.53;100890.59;5044555;28;65601;-39
2024/01/11 06:19:42;;;;;;;41.03;36.75;;;;;;;32.30;65.67;100879.75;5043209;28;70700;-39
2024/01/11 06:22:13;;;;;;;42.50;35.80;;;;;;;32.33;65.71;100889.31;5057655;28;65606;-39
2024/01/11 06:24:44;;;;;;;41.40;36.83;;;;;;;32.35;65.13;100887.19;5043267;28;70235;-39
2024/01/11 06:27:15;;;;;;;40.80;36.55;;;;;;;32.20;65.38;100852.31;5044206;28;66267;-40
2024/01/11 06:29:45;;;;;;;44.92;39.20;;;;;;;32.30;65.41;100863.44;5042459;28;69715;-38
2024/01/11 06:32:16;;;;;;;45.03;40.28;;;;;;;32.37;65.17;100857.91;5043418;28;65589;-38
2024/01/11 06:34:48;;;;;;;44.55;39.67;;;;;;;32.39;65.42;100867.50;5057558;28;69134;-39
2024/01/11 06:37:19;;;;;;;47.42;42.40;;;;;;;32.43;65.67;100863.28;5031851;28;66427;-38
2024/01/11 06:39:50;;;;;;;52.05;44.45;;;;;;;32.40;65.12;100849.31;5043881;28;69787;-38
2024/01/11 06:42:20;;;;;;;50.67;44.05;;;;;;;32.44;65.34;100854.06;5036718;28;66147;-38
2024/01/11 06:44:51;;;;;;;47.35;40.78;;;;;;;32.46;65.05;100843.81;5040021;28;69647;-39
2024/01/11 06:47:21;;;;;;;47.67;42.45;;;;;;;32.49;65.38;100846.06;5038714;28;66720;-38
2024/01/11 06:49:52;;;;;;;49.70;44.67;;;;;;;32.51;65.48;100836.84;5035087;28;70492;-42
2024/01/11 06:52:22;;;;;;;49.65;44.65;;;;;;;32.52;65.32;100838.53;5034732;28;66405;-40
2024/01/11 06:54:53;;;;;;;49.30;43.78;;;;;;;32.49;65.18;100835.22;5039273;28;69116;-39
2024/01/11 06:57:24;;;;;;;57.15;43.95;;;;;;;32.53;65.27;100829.31;5042867;28;66583;-37
2024/01/11 06:59:56;;;;;;;46.70;41.97;;;;;;;32.51;65.28;100832.25;5040929;28;70248;-39
2024/01/11 07:02:27;;;;;;;47.17;42.22;;;;;;;32.53;65.00;100830.13;5040139;28;66471;-39
2024/01/11 07:04:58;;;;;;;49.65;43.80;;;;;;;32.59;65.17;100831.09;5039352;28;69159;-38
2024/01/11 07:07:29;;;;;;;48.92;43.92;;;;;;;32.60;64.95;100827.34;5037418;28;66513;-39
2024/01/11 07:09:59;;;;;;;49.47;44.35;;;;;;;32.59;65.07;100817.50;5039785;28;69937;-39
2024/01/11 07:12:30;;;;;;;49.30;43.92;;;;;;;32.62;65.28;100825.19;5034676;28;66557;-39
2024/01/11 07:15:01;;;;;;;49.77;44.43;;;;;;;32.61;65.33;100818.94;5047435;28;71233;-39
2024/01/11 07:17:32;;;;;;;47.72;42.67;;;;;;;32.65;65.03;100817.44;5042481;28;66318;-39
2024/01/11 07:20:04;;;;;;;45.27;40.60;;;;;;;32.66;65.21;100812.81;5035466;28;69678;-40
2024/01/11 07:22:35;;;;;;;47.30;42.40;;;;;;;32.68;64.78;100816.94;5040768;28;66165;-40
2024/01/11 07:25:09;;;;;;;49.13;43.88;;;;;;;32.68;64.78;100805.25;5039827;28;69972;-41
2024/01/11 07:27:40;;;;;;;46.65;41.70;;;;;;;32.72;64.83;100811.88;5042921;28;65614;-39
2024/01/11 07:30:12;;;;;;;46.67;40.80;;;;;;;32.66;64.79;100794.63;5041599;28;69348;-38
2024/01/11 07:32:43;;;;;;;45.08;40.65;;;;;;;32.67;64.68;100792.72;5045388;28;66155;-40
2024/01/11 07:35:14;;;;;;;43.87;39.40;;;;;;;32.77;64.84;100806.56;5053710;28;71007;-39
2024/01/11 07:37:49;;;;;;;45.72;40.80;;;;;;;32.79;64.75;100807.16;5045188;28;66650;-39
2024/01/11 07:40:21;;;;;;;42.85;38.65;;;;;;;32.82;64.80;100795.81;5046026;28;69773;-38
2024/01/11 07:42:51;;;;;;;43.42;38.72;;;;;;;32.84;64.70;100793.69;5058389;28;66228;-39
2024/01/11 07:45:23;;;;;;;45.22;40.53;;;;;;;32.81;64.83;100787.91;5048247;28;69321;-40
2024/01/11 07:47:53;;;;;;;45.95;41.25;;;;;;;32.86;64.32;100797.00;5041901;28;66733;-39
2024/01/11 07:50:24;;;;;;;45.25;40.85;;;;;;;32.87;64.36;100793.19;5040563;28;70386;-39
2024/01/11 07:52:56;;;;;;;49.63;44.45;;;;;;;32.93;64.45;100796.88;5055806;28;66411;-40
2024/01/11 07:55:27;;;;;;;46.17;41.20;;;;;;;32.89;64.78;100784.84;5034073;28;70473;-38
2024/01/11 07:57:57;;;;;;;43.20;39.03;;;;;;;32.72;64.59;100752.13;5046892;28;66562;-39
2024/01/11 08:00:28;;;;;;;43.72;39.08;;;;;;;32.99;64.63;100789.66;5036378;28;70459;-39
2024/01/11 08:02:59;;;;;;;43.87;38.37;;;;;;;32.93;64.60;100778.69;5037777;28;67946;-40
2024/01/11 08:05:30;;;;;;;44.03;39.53;;;;;;;32.99;64.29;100773.34;5037710;28;69933;-39
2024/01/11 08:08:03;;;;;;;43.47;39.13;;;;;;;33.06;64.21;100779.53;5034911;28;65693;-39
2024/01/11 08:10:34;;;;;;;41.85;37.70;;;;;;;33.08;64.43;100782.84;5036433;28;69049;-40
2024/01/11 08:13:05;;;;;;;;;;;;;;;32.84;64.66;100790.97;5044149;28;65095;-39
2024/01/11 08:15:37;;;;;;;42.05;37.83;;;;;;;32.96;63.96;100762.97;5043225;28;70717;-39
2024/01/11 08:18:08;;;;;;;42.60;37.97;;;;;;;33.10;64.03;100780.72;5068692;28;66043;-39
2024/01/11 08:20:40;;;;;;;43.22;38.50;;;;;;;33.10;63.83;100775.28;5026816;28;69746;-40
2024/01/11 08:23:11;;;;;;;40.97;36.97;;;;;;;33.17;64.08;100784.13;5054171;28;66513;-39
2024/01/11 08:25:41;;;;;;;41.95;37.65;;;;;;;33.18;64.05;100771.38;5055603;28;69833;-39
2024/01/11 08:28:12;;;;;;;41.28;37.25;;;;;;;33.20;63.87;100785.56;5040318;28;65698;-40
2024/01/11 08:30:43;;;;;;;41.55;37.38;;;;;;;33.22;63.64;100780.72;5034007;28;69720;-41
2024/01/11 08:33:13;;;;;;;40.17;36.33;;;;;;;33.22;63.92;100775.28;5052208;28;65530;-39
2024/01/11 08:35:44;;;;;;;40.10;35.90;;;;;;;33.25;63.92;100772.91;5047162;28;70007;-38
2024/01/11 08:38:15;;;;;;;40.03;36.25;;;;;;;33.22;63.76;100762.50;5066050;28;67032;-39
2024/01/11 08:40:46;;;;;;;38.80;34.90;;;;;;;33.24;63.78;100771.25;5071194;28;71579;-40
2024/01/11 08:43:16;;;;;;;38.30;34.58;;;;;;;33.24;63.66;100768.53;5029763;28;65856;-41
2024/01/11 08:45:47;;;;;;;38.10;34.42;;;;;;;33.32;63.91;100781.75;5048318;28;70425;-39
2024/01/11 08:48:18;;;;;;;36.25;32.80;;;;;;;33.28;63.79;100775.13;5057221;28;65761;-39
2024/01/11 08:50:49;;;;;;;36.80;32.97;;;;;;;33.32;63.74;100789.91;5049173;28;70083;-38
2024/01/11 08:53:19;;;;;;;35.47;31.88;;;;;;;33.35;63.63;100780.47;5039850;28;65649;-39
2024/01/11 08:55:50;;;;;;;33.43;30.10;;;;;;;33.36;63.61;100788.34;5039164;28;70346;-39
2024/01/11 08:58:21;;;;;;;33.38;30.17;;;;;;;33.37;63.96;100792.72;5036550;28;66766;-40
2024/01/11 09:00:51;;;;;;;32.78;29.42;;;;;;;33.40;63.77;100785.16;5052697;28;69542;-39
2024/01/11 09:03:22;;;;;;;32.65;29.20;;;;;;;33.38;63.77;100783.50;5052274;28;64890;-39
2024/01/11 09:05:56;;;;;;;31.15;27.90;;;;;;;33.32;63.73;100761.88;5048678;28;70024;-40
2024/01/11 09:08:27;;;;;;;30.95;27.88;;;;;;;33.41;63.94;100781.38;5037542;28;65827;-40
2024/01/11 09:10:58;;;;;;;30.77;27.77;;;;;;;33.37;63.73;100775.59;5034608;28;69915;-41
2024/01/11 09:13:29;;;;;;;28.98;25.98;;;;;;;33.41;63.99;100793.09;5054207;28;66567;-40
2024/01/11 09:16:00;;;;;;;29.73;26.75;;;;;;;33.35;63.88;100794.88;5034693;28;68997;-38
2024/01/11 09:18:30;;;;;;;34.75;28.63;;;;;;;33.12;65.48;100803.03;5042037;28;65290;-39
2024/01/11 09:21:03;;;;;;;42.80;30.75;;;;;;;32.91;67.49;100810.72;5040599;28;70243;-38
2024/01/11 09:23:35;;;;;;;39.33;29.45;;;;;;;32.97;66.43;100808.13;5050503;28;66141;-40
2024/01/11 09:26:06;;;;;;;35.05;28.15;;;;;;;32.99;66.51;100811.41;5036600;28;70146;-39
2024/01/11 09:28:36;;;;;;;35.40;27.15;;;;;;;32.98;66.57;100817.91;5041449;28;66579;-40
2024/01/11 09:31:07;;;;;;;33.90;25.63;;;;;;;32.97;66.83;100818.97;5055137;28;70331;-39
2024/01/11 09:33:38;;;;;;;34.92;23.77;;;;;;;32.92;67.44;100828.66;5038233;28;66029;-39
2024/01/11 09:36:09;;;;;;;38.90;24.33;;;;;;;32.91;67.67;100827.00;5055103;28;69095;-41
2024/01/11 09:38:39;;;;;;;28.17;22.40;;;;;;;32.94;66.97;100833.88;5023129;28;65450;-42
2024/01/11 09:41:13;;;;;;;21.95;19.52;;;;;;;32.90;67.95;100836.22;5039081;28;70180;-39
2024/01/11 09:43:45;;;;;;;28.27;20.33;;;;;;;32.90;67.41;100833.50;5039792;28;65653;-42
2024/01/11 09:46:17;;;;;;;25.02;19.05;;;;;;;32.87;67.51;100835.84;5041937;28;69639;-41
2024/01/11 09:48:48;;;;;;;32.75;18.65;;;;;;;32.88;67.81;100843.78;5039604;28;65640;-40
2024/01/11 09:51:19;;;;;;;28.90;18.10;;;;;;;32.89;67.48;100845.44;5054190;28;69568;-41
2024/01/11 09:53:51;;;;;;;30.23;17.25;;;;;;;32.90;67.92;100849.81;5037988;28;66070;-41
2024/01/11 09:56:23;;;;;;;19.70;15.95;;;;;;;32.79;67.67;100833.47;5024931;28;70397;-40
2024/01/11 09:58:54;;;;;;;16.88;15.00;;;;;;;32.87;67.84;100850.25;5042550;28;65524;-39
2024/01/11 10:01:25;;;;;;;22.90;14.30;;;;;;;32.86;68.02;100848.63;5040871;28;70023;-39
2024/01/11 10:03:55;;;;;;;;;;;;;;;32.63;71.40;100856.75;5030475;28;66222;-40
2024/01/11 10:06:28;;;;;;;16.40;13.00;;;;;;;32.81;68.08;100862.06;5037261;28;70010;-39
2024/01/11 10:08:58;;;;;;;18.45;13.43;;;;;;;32.79;68.20;100866.94;5020297;28;66156;-41
2024/01/11 10:11:29;;;;;;;19.13;12.68;;;;;;;32.74;68.42;100864.09;5023462;28;69754;-39
2024/01/11 10:14:00;;;;;;;19.70;12.70;;;;;;;32.75;68.30;100854.88;5024555;28;66420;-40
2024/01/11 10:16:32;;;;;;;20.00;11.80;;;;;;;32.69;68.18;100850.38;5047711;28;70160;-40
2024/01/11 10:19:03;;;;;;;16.58;10.88;;;;;;;32.72;68.48;100868.91;5053665;28;66334;-39
2024/01/11 10:21:41;;;;;;;13.45;10.70;;;;;;;32.71;69.86;100875.41;5050933;28;70239;-40
2024/01/11 10:24:22;;;;;;;13.55;10.32;;;;;;;32.62;69.53;100865.94;5040090;28;66882;-45
2024/01/11 10:27:03;;;;;;;20.85;10.35;;;;;;;32.57;70.86;100865.78;5044842;28;70615;-38
2024/01/11 10:29:37;;;;;;;14.25;9.98;;;;;;;32.63;69.38;100887.44;5053410;28;66945;-38
2024/01/11 10:32:09;;;;;;;14.40;8.65;;;;;;;32.45;69.29;100860.31;5050834;28;69657;-38
2024/01/11 10:34:41;;;;;;;10.23;9.13;;;;;;;32.67;69.26;100887.78;5050418;28;65823;-39
2024/01/11 10:37:11;;;;;;;;;;;;;;;32.38;72.75;100882.13;5050792;28;68978;-39
2024/01/11 10:39:42;;;;;;;15.65;8.65;;;;;;;32.63;69.49;100892.03;5050219;28;66127;-37
2024/01/11 10:42:17;;;;;;;15.02;8.75;;;;;;;32.62;69.35;100887.66;5069127;28;69779;-38
2024/01/11 10:44:52;;;;;;;20.38;9.13;;;;;;;32.26;68.99;100837.81;5049961;28;66382;-38
2024/01/11 10:47:24;;;;;;;11.50;8.55;;;;;;;32.59;68.52;100905.25;5051510;28;70269;-40
2024/01/11 10:49:57;;;;;;;14.85;8.50;;;;;;;32.61;69.68;100907.75;5056536;28;66865;-38
2024/01/11 10:52:36;;;;;;;21.38;9.02;;;;;;;32.25;69.73;100844.31;5054609;28;70384;-40
2024/01/11 10:55:07;;;;;;;10.00;7.75;;;;;;;32.58;68.59;100902.78;5043370;28;65974;-38
2024/01/11 10:57:39;;;;;;;28.30;8.63;;;;;;;32.47;69.45;100894.34;5051546;28;70352;-39
2024/01/11 11:00:11;;;;;;;;;;;;;;;32.31;72.60;100903.09;5038254;28;66649;-39
2024/01/11 11:02:42;;;;;;;16.15;8.55;;;;;;;32.48;69.48;100903.31;5037836;28;70922;-40
2024/01/11 11:05:15;;;;;;;21.20;8.40;;;;;;;32.53;69.21;100913.50;5042082;28;65365;-41
2024/01/11 11:07:49;;;;;;;17.13;9.50;;;;;;;32.53;70.24;100910.78;5043532;28;69484;-40
2024/01/11 11:10:21;;;;;;;21.15;9.75;;;;;;;32.43;69.92;100901.28;5042507;28;65703;-41
2024/01/11 11:12:51;;;;;;;;;;;;;;;32.27;73.23;100915.50;5042690;28;70046;-41
2024/01/11 11:15:23;;;;;;;26.85;9.85;;;;;;;32.46;70.03;100911.72;5048094;28;66061;-40
2024/01/11 11:17:55;;;;;;;23.13;10.77;;;;;;;32.48;69.70;100909.59;5061883;28;69930;-40
2024/01/11 11:20:27;;;;;;;;;;;;;;;32.23;73.68;100911.56;5063454;28;65952;-39
2024/01/11 11:23:09;;;;;;;22.10;10.60;;;;;;;32.37;71.88;100912.22;5079548;27;43202;-39
2024/01/11 11:25:42;;;;;;;22.17;10.77;;;;;;;32.39;70.13;100910.94;5061817;28;66430;-40
2024/01/11 11:28:14;;;;;;;16.80;10.32;;;;;;;32.21;70.67;100886.56;5073666;28;70193;-40
2024/01/11 11:30:52;;;;;;;21.40;9.15;;;;;;;32.35;70.42;100920.59;5042864;28;65833;-40